createdAt,value
2018-08-21T13:04:41.425Z,29.5
2018-08-21T13:14:55.966Z,29.3
2018-08-21T13:25:10.710Z,28.9
2018-08-21T13:35:26.127Z,30
2018-08-21T13:45:40.147Z,29.4
2018-08-21T13:55:55.388Z,27.2
2018-08-21T14:06:09.843Z,28
2018-08-21T14:16:25.282Z,27.5
2018-08-21T14:26:40.232Z,27.2
2018-08-21T14:36:54.278Z,27.3
2018-08-21T14:47:08.859Z,27.4
2018-08-21T14:57:23.532Z,26.7
2018-08-21T15:07:38.224Z,27.1
2018-08-21T15:17:52.142Z,26.8
2018-08-21T15:28:07.236Z,26.5
2018-08-21T15:38:21.957Z,26.3
2018-08-21T15:48:37.659Z,26.3
2018-08-21T15:58:52.689Z,26.4
2018-08-21T16:09:08.414Z,26.3
2018-08-21T16:19:22.312Z,26.2
2018-08-21T16:29:36.745Z,26.1
2018-08-21T16:39:50.860Z,26
2018-08-21T16:50:05.628Z,25.8
2018-08-21T17:00:21.406Z,25.6
2018-08-21T17:10:35.580Z,25.3
2018-08-21T17:20:51.413Z,25
2018-08-21T17:31:05.660Z,24.8
2018-08-21T17:41:20.443Z,24.7
2018-08-21T17:51:35.208Z,24.5
2018-08-21T18:01:49.139Z,24.3
2018-08-21T18:12:04.637Z,24
2018-08-21T18:22:19.408Z,23.7
2018-08-21T18:32:33.776Z,23.3
2018-08-21T18:42:48.621Z,22.7
2018-08-21T18:53:02.833Z,22.2
2018-08-21T19:03:17.742Z,21.9
2018-08-21T19:13:33.278Z,21.7
2018-08-21T19:23:48.380Z,21.1
2018-08-21T19:44:18.632Z,20.7
2018-08-21T19:54:34.121Z,20.4
2018-08-21T20:04:49.792Z,20
2018-08-21T20:15:04.620Z,19.9
2018-08-21T20:25:18.480Z,20
2018-08-21T20:35:32.493Z,20.2
2018-08-21T20:45:48.040Z,19.9
2018-08-21T20:56:01.956Z,19.4
2018-08-21T21:06:15.951Z,19.2
2018-08-21T21:16:30.517Z,18.9
2018-08-21T21:26:45.586Z,18.6
2018-08-21T21:37:00.291Z,18.4
2018-08-21T21:47:15.156Z,18.3
2018-08-21T21:57:29.039Z,18.4
2018-08-21T22:07:43.560Z,18.3
2018-08-21T22:17:57.541Z,18.4
2018-08-21T22:28:11.789Z,17.9
2018-08-21T22:38:26.393Z,17.7
2018-08-21T22:48:40.899Z,17.9
2018-08-21T22:58:54.757Z,17.6
2018-08-21T23:09:10.442Z,17.6
2018-08-21T23:19:25.060Z,17.2
2018-08-21T23:29:39.546Z,17.1
2018-08-21T23:39:54.785Z,17.1
2018-08-21T23:50:08.933Z,17.4
